createdAt,value
2022-12-16T00:00:07.122Z,6.90
2022-12-16T00:02:34.093Z,6.68
2022-12-16T00:05:00.981Z,5.90
2022-12-16T00:07:27.638Z,4.97
2022-12-16T00:09:54.266Z,5.35
2022-12-16T00:12:21.474Z,4.55
2022-12-16T00:14:48.038Z,5.32
2022-12-16T00:17:17.232Z,7.57
2022-12-16T00:19:43.950Z,7.38
2022-12-16T00:22:10.673Z,6.47
2022-12-16T00:24:37.474Z,8.50
2022-12-16T00:27:04.253Z,7.88
2022-12-16T00:29:30.955Z,9.30
2022-12-16T00:31:57.701Z,12.02
2022-12-16T00:34:27.304Z,11.90
2022-12-16T00:36:53.912Z,7.95
2022-12-16T00:39:20.701Z,8.23
2022-12-16T00:41:51.477Z,8.65
2022-12-16T00:44:21.554Z,7.28
2022-12-16T00:46:48.516Z,5.95
2022-12-16T00:49:15.456Z,6.28
2022-12-16T00:51:41.990Z,10.18
2022-12-16T00:54:08.807Z,6.90
2022-12-16T00:56:35.688Z,10.18
2022-12-16T00:59:02.423Z,13.27
2022-12-16T01:01:29.254Z,10.77
2022-12-16T01:03:58.138Z,12.55
2022-12-16T01:06:24.921Z,11.55
2022-12-16T01:08:51.960Z,10.60
2022-12-16T01:11:19.914Z,9.63
2022-12-16T01:13:50.287Z,8.05
2022-12-16T01:16:19.094Z,10.13
2022-12-16T01:18:46.126Z,8.65
2022-12-16T01:21:14.784Z,8.00
2022-12-16T01:23:41.502Z,7.20
2022-12-16T01:26:08.267Z,7.07
2022-12-16T01:28:35.094Z,7.22
2022-12-16T01:31:03.634Z,8.48
2022-12-16T01:33:32.762Z,6.57
2022-12-16T01:36:05.324Z,4.78
2022-12-16T01:38:32.351Z,4.47
2022-12-16T01:40:59.119Z,4.38
2022-12-16T01:43:29.785Z,5.53
2022-12-16T01:46:10.318Z,7.78
2022-12-16T01:48:58.763Z,6.68
2022-12-16T01:51:35.052Z,6.40
2022-12-16T01:54:05.064Z,7.07
2022-12-16T01:56:39.016Z,12.05
2022-12-16T01:59:06.065Z,9.15
2022-12-16T02:01:33.014Z,9.05
2022-12-16T02:04:02.173Z,9.15
2022-12-16T02:06:30.557Z,10.35
2022-12-16T02:08:58.684Z,11.05
2022-12-16T02:11:47.176Z,14.27
2022-12-16T02:14:38.205Z,11.27
2022-12-16T02:17:21.687Z,11.20
2022-12-16T02:20:26.941Z,10.88
2022-12-16T02:23:21.091Z,10.80
2022-12-16T02:26:04.107Z,9.60
2022-12-16T02:28:33.720Z,9.30
2022-12-16T02:31:15.607Z,9.52
2022-12-16T02:34:21.191Z,8.63
2022-12-16T02:37:13.933Z,7.80
2022-12-16T02:39:52.547Z,6.00
2022-12-16T02:42:31.503Z,6.45
2022-12-16T02:45:12.627Z,8.65
2022-12-16T02:47:39.752Z,9.05
2022-12-16T02:50:18.782Z,7.65
2022-12-16T02:52:45.620Z,9.68
2022-12-16T02:55:12.865Z,10.45
2022-12-16T02:57:54.698Z,13.63
2022-12-16T03:00:23.104Z,9.15
2022-12-16T03:03:05.966Z,11.40
2022-12-16T03:05:41.161Z,12.10
2022-12-16T03:08:36.883Z,11.25
2022-12-16T03:11:06.975Z,14.00
2022-12-16T03:13:42.573Z,14.02
2022-12-16T03:16:10.738Z,14.05
2022-12-16T03:18:39.942Z,12.05
2022-12-16T03:21:11.657Z,10.30
2022-12-16T03:23:44.562Z,13.48
2022-12-16T03:26:17.600Z,13.07
2022-12-16T03:28:59.493Z,11.65
2022-12-16T03:31:49.701Z,9.80
2022-12-16T03:34:37.904Z,9.48
2022-12-16T03:37:08.159Z,11.18
2022-12-16T03:39:38.869Z,10.52
2022-12-16T03:42:06.132Z,14.50
2022-12-16T03:44:35.534Z,13.77
2022-12-16T03:47:04.937Z,11.20
2022-12-16T03:49:34.897Z,10.20
2022-12-16T03:52:01.590Z,12.40
2022-12-16T03:54:28.605Z,13.10
2022-12-16T03:56:55.308Z,13.90
2022-12-16T03:59:22.237Z,11.98
2022-12-16T04:01:50.355Z,13.77
2022-12-16T04:04:18.318Z,14.10
2022-12-16T04:06:45.182Z,13.02
2022-12-16T04:09:11.954Z,12.32
2022-12-16T04:11:57.337Z,11.85
2022-12-16T04:14:50.310Z,13.85
2022-12-16T04:17:38.527Z,12.57
2022-12-16T04:20:24.603Z,13.25
2022-12-16T04:23:09.812Z,14.77
2022-12-16T04:25:37.323Z,13.63
2022-12-16T04:28:04.448Z,13.50
2022-12-16T04:30:34.968Z,14.60
2022-12-16T04:33:24.093Z,14.38
2022-12-16T04:36:09.217Z,12.13
2022-12-16T04:38:54.615Z,12.45
2022-12-16T04:41:39.934Z,13.32
2022-12-16T04:44:25.142Z,12.65
2022-12-16T04:47:13.562Z,11.98
2022-12-16T04:49:58.735Z,10.15
2022-12-16T04:52:44.386Z,7.88
2022-12-16T04:55:33.521Z,1.95
2022-12-16T04:58:20.491Z,4.50
2022-12-16T05:01:07.204Z,5.80
2022-12-16T05:03:53.499Z,8.68
2022-12-16T05:06:39.240Z,9.85
2022-12-16T05:09:27.697Z,8.60
2022-12-16T05:12:12.914Z,11.48
2022-12-16T05:14:57.934Z,12.38
2022-12-16T05:17:43.501Z,10.98
2022-12-16T05:20:29.506Z,10.65
2022-12-16T05:23:15.780Z,10.60
2022-12-16T05:26:01.773Z,10.48
2022-12-16T05:28:47.023Z,8.25
2022-12-16T05:31:32.332Z,9.10
2022-12-16T05:34:17.643Z,9.65
2022-12-16T05:37:02.797Z,9.52
2022-12-16T05:39:48.261Z,10.65
2022-12-16T05:42:33.828Z,12.75
2022-12-16T05:45:19.233Z,10.80
2022-12-16T05:48:24.466Z,13.00
2022-12-16T05:51:10.043Z,9.85
2022-12-16T05:53:55.102Z,9.77
2022-12-16T05:56:40.488Z,14.07
2022-12-16T05:59:25.836Z,12.10
2022-12-16T06:02:11.298Z,11.85
2022-12-16T06:04:56.877Z,9.75
2022-12-16T06:07:42.192Z,11.27
2022-12-16T06:10:28.085Z,12.23
2022-12-16T06:13:13.104Z,10.27
2022-12-16T06:16:02.455Z,10.50
2022-12-16T06:18:50.710Z,8.13
2022-12-16T06:21:35.837Z,7.97
2022-12-16T06:24:21.073Z,7.65
2022-12-16T06:27:06.423Z,8.30
2022-12-16T06:29:51.795Z,9.45
2022-12-16T06:32:37.290Z,8.90
2022-12-16T06:35:23.924Z,7.65
2022-12-16T06:38:09.586Z,10.57
2022-12-16T06:40:55.113Z,7.70
2022-12-16T06:43:40.655Z,8.82
2022-12-16T06:46:26.020Z,7.93
2022-12-16T06:49:11.340Z,5.93
2022-12-16T06:51:57.074Z,6.80
2022-12-16T06:54:42.138Z,6.22
2022-12-16T06:57:27.247Z,8.10
2022-12-16T07:00:15.306Z,6.60
2022-12-16T07:03:04.822Z,7.47
2022-12-16T07:05:50.023Z,8.02
2022-12-16T07:08:35.288Z,8.55
2022-12-16T07:11:20.971Z,6.75
2022-12-16T07:14:06.141Z,5.82
2022-12-16T07:16:51.886Z,7.15
2022-12-16T07:19:37.390Z,7.38
2022-12-16T07:22:22.743Z,9.75
2022-12-16T07:25:08.005Z,8.40
2022-12-16T07:27:53.605Z,8.88
2022-12-16T07:30:38.815Z,6.22
2022-12-16T07:33:24.476Z,7.22
2022-12-16T07:36:09.802Z,4.88
2022-12-16T07:38:56.390Z,3.97
2022-12-16T07:41:41.413Z,5.38
2022-12-16T07:44:26.490Z,7.70
2022-12-16T07:47:14.841Z,7.53
2022-12-16T07:50:00.293Z,8.10
2022-12-16T07:52:50.655Z,8.52
2022-12-16T07:55:36.449Z,9.43
2022-12-16T07:58:21.815Z,7.65
2022-12-16T08:04:16.715Z,9.95
2022-12-16T08:07:02.093Z,8.77
2022-12-16T08:09:47.526Z,9.55
2022-12-16T08:12:32.668Z,12.20
2022-12-16T08:15:18.023Z,13.48
2022-12-16T08:18:10.379Z,10.10
2022-12-16T08:20:56.181Z,8.95
2022-12-16T08:23:43.236Z,4.35
2022-12-16T08:26:28.439Z,6.18
2022-12-16T08:29:43.213Z,3.15
2022-12-16T08:32:29.564Z,3.10
2022-12-16T08:35:16.164Z,2.88
2022-12-16T08:38:02.752Z,4.72
2022-12-16T08:40:48.102Z,5.55
2022-12-16T08:43:33.807Z,5.90
2022-12-16T08:46:19.522Z,7.20
2022-12-16T08:49:05.432Z,3.22
2022-12-16T08:51:50.639Z,0.60
2022-12-16T08:54:36.494Z,1.98
2022-12-16T08:57:21.699Z,2.90
2022-12-16T09:00:06.878Z,1.88
2022-12-16T09:02:52.151Z,0.68
2022-12-16T09:05:38.360Z,0.40
2022-12-16T09:08:23.539Z,0.30
2022-12-16T09:11:08.652Z,0.25
2022-12-16T09:13:53.911Z,0.30
2022-12-16T09:16:43.030Z,0.30
2022-12-16T09:19:28.905Z,0.20
2022-12-16T09:22:14.258Z,0.30
2022-12-16T09:24:59.538Z,0.20
2022-12-16T09:27:44.961Z,0.40
2022-12-16T09:30:30.440Z,0.25
2022-12-16T09:33:15.666Z,0.20
2022-12-16T09:36:04.599Z,0.22
2022-12-16T09:38:51.181Z,0.30
2022-12-16T09:41:45.224Z,0.40
2022-12-16T09:45:02.214Z,0.40
2022-12-16T09:47:54.414Z,0.40
2022-12-16T09:50:48.250Z,0.30
2022-12-16T09:53:37.133Z,0.30
2022-12-16T09:56:25.279Z,0.28
2022-12-16T09:59:17.096Z,0.50
2022-12-16T10:02:02.989Z,0.65
2022-12-16T10:04:48.210Z,0.20
2022-12-16T10:07:37.922Z,2.65
2022-12-16T10:10:44.817Z,0.30
2022-12-16T10:13:48.516Z,0.40
2022-12-16T10:16:43.963Z,0.25
2022-12-16T10:19:29.166Z,0.20
2022-12-16T10:22:38.661Z,0.30
2022-12-16T10:25:30.845Z,0.30
2022-12-16T10:28:35.403Z,0.40
2022-12-16T10:31:32.603Z,0.40
2022-12-16T10:34:17.992Z,0.30
2022-12-16T10:37:09.149Z,0.30
2022-12-16T10:39:59.116Z,0.20
2022-12-16T10:42:50.190Z,0.20
2022-12-16T10:45:47.669Z,0.30
2022-12-16T10:48:33.123Z,0.20
2022-12-16T10:51:19.480Z,0.30
2022-12-16T10:54:06.547Z,2.63
2022-12-16T10:57:12.436Z,9.73
2022-12-16T10:59:59.750Z,12.50
2022-12-16T11:02:49.611Z,12.07
2022-12-16T11:05:46.892Z,12.27
2022-12-16T11:08:46.829Z,11.15
2022-12-16T11:11:49.180Z,8.10
2022-12-16T11:14:34.174Z,10.15
2022-12-16T11:17:40.250Z,10.88
2022-12-16T11:20:37.427Z,9.57
2022-12-16T11:23:33.074Z,11.68
2022-12-16T11:26:37.517Z,16.65
2022-12-16T11:29:24.064Z,0.20
2022-12-16T11:32:22.206Z,0.20
2022-12-16T11:35:18.642Z,0.40
2022-12-16T11:38:04.940Z,0.40
2022-12-16T11:40:50.712Z,0.52
2022-12-16T11:43:37.515Z,16.00
2022-12-16T11:46:28.354Z,16.75
2022-12-16T11:49:24.975Z,16.15
2022-12-16T11:56:05.393Z,11.10
2022-12-16T11:59:05.375Z,12.80
2022-12-16T12:02:06.542Z,11.82
2022-12-16T12:04:52.089Z,9.60
2022-12-16T12:08:02.162Z,16.55
2022-12-16T12:11:02.556Z,7.20
2022-12-16T12:14:07.983Z,5.78
2022-12-16T12:17:01.779Z,4.28
2022-12-16T12:20:11.098Z,6.65
2022-12-16T12:22:57.663Z,9.10
2022-12-16T12:25:58.432Z,0.60
2022-12-16T12:28:53.335Z,12.70
2022-12-16T12:31:38.617Z,2.20
2022-12-16T12:34:33.161Z,7.97
2022-12-16T12:37:25.475Z,3.25
2022-12-16T12:40:27.317Z,2.38
2022-12-16T12:43:14.197Z,0.80
2022-12-16T12:46:11.688Z,0.30
2022-12-16T12:49:05.732Z,0.20
2022-12-16T12:52:20.218Z,0.30
2022-12-16T12:55:28.182Z,0.30
2022-12-16T12:58:14.326Z,1.45
2022-12-16T13:01:05.248Z,7.07
2022-12-16T13:03:50.523Z,3.40
2022-12-16T13:06:37.012Z,10.00
2022-12-16T13:09:22.707Z,10.10
2022-12-16T13:12:25.905Z,1.77
2022-12-16T13:15:11.063Z,2.05
2022-12-16T13:18:17.969Z,0.30
2022-12-16T13:21:13.398Z,3.38
2022-12-16T13:24:02.372Z,5.68
2022-12-16T13:26:49.948Z,3.85
2022-12-16T13:29:38.830Z,5.75
2022-12-16T13:32:36.273Z,6.63
2022-12-16T13:35:27.362Z,7.72
2022-12-16T13:38:25.146Z,6.82
2022-12-16T13:41:19.175Z,0.60
2022-12-16T13:44:06.481Z,1.10
2022-12-16T13:47:03.110Z,1.10
2022-12-16T13:49:54.436Z,1.08
2022-12-16T13:52:45.778Z,0.75
2022-12-16T13:55:34.051Z,0.30
2022-12-16T13:58:24.200Z,0.45
2022-12-16T14:01:29.880Z,1.00
2022-12-16T14:04:16.082Z,0.85
2022-12-16T14:07:01.737Z,1.52
2022-12-16T14:09:57.925Z,0.47
2022-12-16T14:12:49.681Z,0.40
2022-12-16T14:15:44.681Z,0.30
2022-12-16T14:19:25.640Z,0.30
2022-12-16T14:22:17.913Z,0.40
2022-12-16T14:25:03.376Z,0.60
2022-12-16T14:27:51.823Z,0.40
2022-12-16T14:30:43.672Z,2.30
2022-12-16T14:33:54.816Z,5.50
2022-12-16T14:36:42.565Z,2.28
2022-12-16T14:39:43.461Z,4.25
2022-12-16T14:42:45.499Z,4.25
2022-12-16T14:45:50.830Z,3.47
2022-12-16T14:48:50.085Z,2.83
2022-12-16T14:51:41.861Z,3.22
2022-12-16T14:54:54.078Z,2.97
2022-12-16T14:57:44.344Z,2.20
2022-12-16T15:00:36.692Z,0.60
2022-12-16T15:03:31.450Z,0.30
2022-12-16T15:06:17.152Z,0.70
2022-12-16T15:09:09.356Z,12.48
2022-12-16T15:11:55.739Z,9.32
2022-12-16T15:14:56.441Z,9.45
2022-12-16T15:18:01.319Z,10.82
2022-12-16T15:20:47.355Z,8.55
2022-12-16T15:23:44.799Z,9.85
2022-12-16T15:26:41.429Z,12.00
2022-12-16T15:29:46.384Z,14.23
2022-12-16T15:32:53.465Z,14.15
2022-12-16T15:35:45.790Z,16.20
2022-12-16T15:38:38.387Z,17.38
2022-12-16T15:41:24.573Z,19.15
2022-12-16T15:44:10.777Z,20.20
2022-12-16T15:46:55.884Z,20.23
2022-12-16T15:50:02.103Z,19.98
2022-12-16T15:52:49.043Z,16.95
2022-12-16T15:56:02.573Z,14.90
2022-12-16T15:58:54.554Z,15.73
2022-12-16T16:01:46.585Z,16.98
2022-12-16T16:04:43.369Z,18.48
2022-12-16T16:07:42.520Z,18.45
2022-12-16T16:10:38.509Z,17.15
2022-12-16T16:13:25.818Z,17.88
2022-12-16T16:16:11.488Z,20.15
2022-12-16T16:18:56.894Z,18.73
2022-12-16T16:21:42.379Z,17.38
2022-12-16T16:24:27.597Z,17.40
2022-12-16T16:27:13.340Z,18.05
2022-12-16T16:29:58.813Z,18.13
2022-12-16T16:32:44.119Z,20.15
2022-12-16T16:35:29.558Z,19.85
2022-12-16T16:38:18.321Z,20.85
2022-12-16T16:41:04.323Z,20.85
2022-12-16T16:43:49.786Z,20.17
2022-12-16T16:46:46.150Z,21.55
2022-12-16T16:49:38.470Z,22.42
2022-12-16T16:52:23.873Z,24.10
2022-12-16T16:55:09.033Z,23.27
2022-12-16T16:57:56.287Z,23.67
2022-12-16T17:00:44.136Z,24.52
2022-12-16T17:03:29.745Z,18.33
2022-12-16T17:06:15.114Z,19.10
2022-12-16T17:09:00.270Z,19.75
2022-12-16T17:11:46.003Z,20.65
2022-12-16T17:14:33.724Z,19.80
2022-12-16T17:17:18.987Z,20.60
2022-12-16T17:20:04.369Z,17.98
2022-12-16T17:22:50.110Z,20.48
2022-12-16T17:25:35.651Z,24.05
2022-12-16T17:28:22.234Z,21.90
2022-12-16T17:31:07.320Z,19.77
2022-12-16T17:33:52.582Z,18.45
2022-12-16T17:36:38.461Z,17.98
2022-12-16T17:39:24.149Z,18.33
2022-12-16T17:42:09.527Z,20.00
2022-12-16T17:44:54.782Z,20.77
2022-12-16T17:47:41.714Z,22.27
2022-12-16T17:50:27.611Z,19.15
2022-12-16T17:53:16.186Z,22.38
2022-12-16T17:56:03.606Z,21.17
2022-12-16T17:58:53.729Z,18.15
2022-12-16T18:01:47.392Z,19.95
2022-12-16T18:04:32.990Z,19.85
2022-12-16T18:07:18.311Z,22.20
2022-12-16T18:10:05.986Z,21.02
2022-12-16T18:12:51.669Z,20.52
2022-12-16T18:15:36.900Z,21.33
2022-12-16T18:18:22.111Z,20.38
2022-12-16T18:21:07.144Z,21.13
2022-12-16T18:23:54.870Z,22.85
2022-12-16T18:26:40.574Z,19.45
2022-12-16T18:29:25.827Z,18.98
2022-12-16T18:32:10.950Z,23.08
2022-12-16T18:34:56.302Z,17.23
2022-12-16T18:37:42.420Z,16.77
2022-12-16T18:40:28.386Z,17.33
2022-12-16T18:43:13.653Z,17.25
2022-12-16T18:45:59.003Z,17.52
2022-12-16T18:48:44.140Z,16.60
2022-12-16T18:51:29.283Z,16.77
2022-12-16T18:54:16.659Z,13.40
2022-12-16T18:57:01.573Z,15.98
2022-12-16T18:59:47.120Z,14.98
2022-12-16T19:02:32.475Z,15.00
2022-12-16T19:05:17.700Z,15.25
2022-12-16T19:08:02.902Z,12.05
2022-12-16T19:10:48.394Z,15.85
2022-12-16T19:13:33.790Z,15.05
2022-12-16T19:16:22.570Z,13.32
2022-12-16T19:19:09.078Z,16.80
2022-12-16T19:25:02.886Z,17.10
2022-12-16T19:27:48.391Z,15.80
2022-12-16T19:30:39.198Z,16.92
2022-12-16T19:33:24.285Z,20.15
2022-12-16T19:39:14.886Z,15.77
2022-12-16T19:42:00.359Z,12.77
2022-12-16T19:44:45.964Z,12.93
2022-12-16T19:47:31.495Z,10.73
2022-12-16T19:50:17.293Z,11.93
2022-12-16T19:53:02.264Z,13.50
2022-12-16T19:55:48.019Z,12.27
2022-12-16T19:58:38.404Z,14.55
2022-12-16T20:01:27.876Z,14.65
2022-12-16T20:04:13.354Z,16.67
2022-12-16T20:06:59.200Z,15.88
2022-12-16T20:09:44.695Z,17.08
2022-12-16T20:12:29.928Z,17.35
2022-12-16T20:15:15.421Z,17.52
2022-12-16T20:18:04.268Z,18.58
2022-12-16T20:20:49.364Z,17.45
2022-12-16T20:23:34.502Z,16.23
2022-12-16T20:26:20.727Z,18.52
2022-12-16T20:29:06.725Z,21.00
2022-12-16T20:31:52.077Z,21.52
2022-12-16T20:34:37.436Z,21.77
2022-12-16T20:37:23.296Z,24.20
2022-12-16T20:40:08.420Z,25.02
2022-12-16T20:42:56.336Z,23.30
2022-12-16T20:45:42.277Z,23.98
2022-12-16T20:48:32.434Z,20.05
2022-12-16T20:51:25.850Z,22.98
2022-12-16T20:54:12.085Z,14.85
2022-12-16T20:56:57.489Z,14.90
2022-12-16T20:59:42.586Z,16.33
2022-12-16T21:02:33.542Z,17.98
2022-12-16T21:05:20.356Z,17.63
2022-12-16T21:08:06.160Z,16.50
2022-12-16T21:10:51.775Z,15.07
2022-12-16T21:13:37.636Z,16.98
2022-12-16T21:16:25.028Z,16.55
2022-12-16T21:19:10.792Z,16.75
2022-12-16T21:21:56.652Z,18.38
2022-12-16T21:24:42.201Z,16.50
2022-12-16T21:27:27.623Z,17.58
2022-12-16T21:30:16.255Z,22.30
2022-12-16T21:33:01.609Z,22.67
2022-12-16T21:35:47.050Z,23.40
2022-12-16T21:38:32.589Z,20.20
2022-12-16T21:41:20.510Z,19.40
2022-12-16T21:44:06.264Z,18.70
2022-12-16T21:46:52.009Z,14.93
2022-12-16T21:49:37.476Z,18.35
2022-12-16T21:52:23.485Z,18.70
2022-12-16T21:55:08.876Z,16.67
2022-12-16T21:57:56.433Z,17.83
2022-12-16T22:00:42.252Z,22.10
2022-12-16T22:03:27.264Z,18.45
2022-12-16T22:06:12.762Z,15.65
2022-12-16T22:09:01.191Z,21.25
2022-12-16T22:11:46.959Z,22.30
2022-12-16T22:14:32.663Z,26.60
2022-12-16T22:17:18.001Z,23.25
2022-12-16T22:20:03.594Z,23.77
2022-12-16T22:22:49.054Z,20.08
2022-12-16T22:25:34.148Z,24.08
2022-12-16T22:28:19.564Z,23.35
2022-12-16T22:31:15.603Z,22.20
2022-12-16T22:34:01.746Z,24.38
2022-12-16T22:36:20.144Z,17.90
2022-12-16T22:36:47.062Z,36.72
2022-12-16T22:39:32.731Z,34.42
2022-12-16T22:42:18.142Z,31.90
2022-12-16T22:45:03.557Z,31.05
2022-12-16T22:47:49.959Z,30.92
2022-12-16T22:50:35.085Z,30.98
2022-12-16T22:53:20.679Z,28.75
2022-12-16T22:56:12.887Z,15.02
2022-12-16T22:58:58.479Z,0.30
2022-12-16T23:01:44.397Z,0.40
2022-12-16T23:04:30.566Z,0.20
2022-12-16T23:07:16.115Z,0.63
2022-12-16T23:10:01.758Z,0.30
2022-12-16T23:12:47.013Z,0.30
2022-12-16T23:15:33.034Z,0.40
2022-12-16T23:18:18.837Z,1.52
2022-12-16T23:21:07.712Z,0.40
2022-12-16T23:23:53.463Z,0.20
2022-12-16T23:26:42.491Z,0.20
2022-12-16T23:29:27.854Z,2.05
2022-12-16T23:32:13.568Z,0.28
2022-12-16T23:35:06.383Z,0.40
2022-12-16T23:37:51.860Z,21.30
2022-12-16T23:40:53.831Z,22.45
2022-12-16T23:43:39.342Z,23.98
2022-12-16T23:46:24.940Z,22.42
2022-12-16T23:49:10.209Z,22.83
2022-12-16T23:51:55.561Z,19.40
2022-12-16T23:54:41.657Z,21.10
2022-12-16T23:57:27.059Z,22.63
